createdAt,value
2018-09-18T00:00:15.757Z,48.80
2018-09-18T00:01:18.800Z,48.80
2018-09-18T00:02:21.876Z,48.80
2018-09-18T00:03:24.986Z,48.80
2018-09-18T00:04:28.266Z,48.80
2018-09-18T00:05:31.576Z,48.80
2018-09-18T00:06:34.647Z,48.80
2018-09-18T00:07:37.716Z,48.80
2018-09-18T00:08:40.780Z,48.80
2018-09-18T00:09:43.809Z,48.80
2018-09-18T00:10:46.847Z,48.80
2018-09-18T00:11:49.995Z,48.80
2018-09-18T00:12:53.087Z,48.80
2018-09-18T00:13:56.269Z,48.90
2018-09-18T00:14:59.247Z,48.90
2018-09-18T00:16:02.481Z,48.90
2018-09-18T00:17:05.521Z,48.80
2018-09-18T00:18:08.595Z,48.90
2018-09-18T00:19:11.703Z,48.80
2018-09-18T00:20:14.751Z,48.90
2018-09-18T00:21:17.861Z,48.90
2018-09-18T00:22:20.968Z,48.90
2018-09-18T00:23:24.155Z,48.90
2018-09-18T00:24:27.265Z,48.90
2018-09-18T00:25:30.343Z,48.90
2018-09-18T00:26:33.403Z,48.90
2018-09-18T00:27:36.472Z,48.90
2018-09-18T00:28:39.546Z,48.90
2018-09-18T00:29:43.903Z,48.90
2018-09-18T00:30:48.046Z,48.90
2018-09-18T00:31:51.464Z,48.90
2018-09-18T00:32:55.161Z,48.90
2018-09-18T00:33:58.220Z,48.90
2018-09-18T00:35:01.241Z,48.90
2018-09-18T00:36:04.320Z,48.90
2018-09-18T00:37:07.489Z,49.00
2018-09-18T00:38:10.641Z,49.00
2018-09-18T00:39:13.733Z,49.00
2018-09-18T00:40:16.713Z,48.90
2018-09-18T00:41:19.812Z,49.00
2018-09-18T00:42:22.928Z,49.00
2018-09-18T00:43:26.044Z,49.00
2018-09-18T00:44:29.138Z,49.00
2018-09-18T00:45:32.413Z,49.00
2018-09-18T00:46:35.776Z,49.00
2018-09-18T00:47:38.868Z,49.00
2018-09-18T00:48:41.963Z,48.90
2018-09-18T00:49:45.048Z,49.00
2018-09-18T00:50:48.084Z,48.90
2018-09-18T00:51:51.318Z,48.90
2018-09-18T00:52:54.461Z,48.90
2018-09-18T00:53:57.561Z,48.90
2018-09-18T00:55:00.564Z,48.90
2018-09-18T00:56:03.644Z,48.90
2018-09-18T00:57:06.891Z,48.90
2018-09-18T00:58:09.979Z,48.90
2018-09-18T00:59:13.041Z,48.90
2018-09-18T01:00:16.113Z,48.90
2018-09-18T01:01:19.832Z,48.90
2018-09-18T01:02:24.140Z,48.90
2018-09-18T01:03:27.182Z,48.90
2018-09-18T01:04:30.864Z,48.90
2018-09-18T01:05:33.928Z,49.00
2018-09-18T01:06:36.993Z,48.90
2018-09-18T01:07:40.036Z,48.80
2018-09-18T01:08:43.105Z,48.90
2018-09-18T01:09:46.136Z,48.80
2018-09-18T01:10:49.181Z,48.80
2018-09-18T01:11:52.264Z,48.80
2018-09-18T01:12:55.335Z,48.90
2018-09-18T01:13:58.410Z,48.80
2018-09-18T01:15:01.432Z,48.80
2018-09-18T01:16:04.471Z,48.80
2018-09-18T01:17:07.819Z,48.80
2018-09-18T01:18:11.159Z,48.80
2018-09-18T01:19:14.232Z,48.80
2018-09-18T01:20:17.279Z,48.80
2018-09-18T01:21:20.360Z,48.70
2018-09-18T01:22:24.205Z,48.70
2018-09-18T01:23:27.431Z,48.70
2018-09-18T01:24:30.884Z,48.70
2018-09-18T01:25:33.967Z,48.80
2018-09-18T01:26:37.016Z,48.80
2018-09-18T01:27:40.113Z,48.80
2018-09-18T01:28:43.184Z,48.80
2018-09-18T01:29:46.272Z,48.80
2018-09-18T01:30:49.446Z,48.80
2018-09-18T01:31:52.550Z,48.80
2018-09-18T01:32:55.592Z,48.80
2018-09-18T01:33:58.700Z,48.80
2018-09-18T01:35:01.772Z,48.80
2018-09-18T01:36:04.990Z,48.80
2018-09-18T01:37:08.100Z,48.80
2018-09-18T01:38:11.167Z,48.80
2018-09-18T01:39:14.228Z,48.80
2018-09-18T01:40:17.272Z,48.80
2018-09-18T01:41:20.352Z,48.80
2018-09-18T01:42:23.436Z,48.80
2018-09-18T01:43:26.500Z,48.80
2018-09-18T01:44:29.712Z,48.80
2018-09-18T01:45:32.839Z,48.80
2018-09-18T01:46:35.938Z,48.80
2018-09-18T01:47:39.006Z,48.80
2018-09-18T01:48:42.202Z,48.80
2018-09-18T01:49:45.383Z,48.80
2018-09-18T01:50:48.540Z,48.80
2018-09-18T01:51:51.703Z,48.80
2018-09-18T01:52:54.761Z,48.80
2018-09-18T01:53:57.839Z,48.80
2018-09-18T01:55:00.916Z,48.80
2018-09-18T01:56:04.090Z,48.80
2018-09-18T01:57:07.639Z,48.80
2018-09-18T01:58:10.975Z,48.80
2018-09-18T01:59:14.056Z,48.80
2018-09-18T02:00:17.612Z,48.80
2018-09-18T02:01:20.882Z,48.80
2018-09-18T02:02:23.977Z,48.80
2018-09-18T02:03:27.104Z,48.80
2018-09-18T02:04:30.252Z,48.80
2018-09-18T02:05:33.507Z,48.80
2018-09-18T02:06:36.614Z,48.80
2018-09-18T02:07:40.265Z,48.80
2018-09-18T02:08:43.678Z,48.80
2018-09-18T02:09:46.965Z,48.80
2018-09-18T02:10:50.073Z,48.80
2018-09-18T02:11:53.276Z,48.80
2018-09-18T02:12:56.382Z,48.70
2018-09-18T02:13:59.455Z,48.70
2018-09-18T02:15:02.484Z,48.70
2018-09-18T02:16:05.664Z,48.80
2018-09-18T02:17:08.736Z,48.80
2018-09-18T02:18:11.784Z,48.70
2018-09-18T02:19:14.841Z,48.80
2018-09-18T02:20:18.321Z,48.70
2018-09-18T02:21:21.523Z,48.80
2018-09-18T02:22:24.568Z,48.80
2018-09-18T02:23:27.716Z,48.80
2018-09-18T02:24:30.799Z,48.80
2018-09-18T02:25:33.908Z,48.80
2018-09-18T02:26:37.554Z,48.80
2018-09-18T02:27:41.256Z,48.80
2018-09-18T02:28:44.481Z,48.80
2018-09-18T02:29:47.524Z,48.80
2018-09-18T02:30:50.638Z,48.80
2018-09-18T02:31:53.856Z,48.80
2018-09-18T02:32:56.855Z,48.80
2018-09-18T02:34:00.013Z,48.80
2018-09-18T02:35:03.023Z,49.10
2018-09-18T02:36:06.362Z,48.80
2018-09-18T02:37:09.523Z,48.80
2018-09-18T02:38:12.569Z,48.80
2018-09-18T02:39:15.715Z,48.80
2018-09-18T02:40:18.768Z,48.80
2018-09-18T02:41:22.244Z,48.80
2018-09-18T02:42:25.382Z,48.80
2018-09-18T02:43:28.504Z,48.80
2018-09-18T02:44:31.581Z,49.00
2018-09-18T02:45:34.611Z,48.80
2018-09-18T02:46:37.688Z,48.90
2018-09-18T02:47:40.779Z,48.80
2018-09-18T02:48:43.809Z,48.90
2018-09-18T02:49:46.965Z,48.90
2018-09-18T02:50:50.040Z,48.80
2018-09-18T02:51:53.155Z,48.80
2018-09-18T02:52:56.224Z,48.80
2018-09-18T02:53:59.273Z,48.90
2018-09-18T02:55:02.512Z,48.80
2018-09-18T02:56:05.483Z,48.80
2018-09-18T02:57:08.660Z,48.90
2018-09-18T02:58:11.812Z,48.80
2018-09-18T02:59:15.062Z,48.80
2018-09-18T03:00:18.168Z,48.80
2018-09-18T03:01:21.245Z,48.90
2018-09-18T03:02:24.369Z,48.90
2018-09-18T03:03:28.045Z,48.80
2018-09-18T03:04:31.352Z,48.80
2018-09-18T03:05:34.606Z,48.90
2018-09-18T03:06:37.740Z,48.90
2018-09-18T03:07:40.969Z,49.50
2018-09-18T03:08:44.820Z,48.90
2018-09-18T03:09:50.841Z,48.90
2018-09-18T03:10:54.832Z,48.90
2018-09-18T03:11:58.037Z,48.90
2018-09-18T03:13:01.115Z,48.90
2018-09-18T03:14:06.780Z,48.90
2018-09-18T03:15:09.954Z,48.90
2018-09-18T03:16:13.148Z,48.90
2018-09-18T03:17:16.408Z,48.90
2018-09-18T03:18:19.572Z,48.90
2018-09-18T03:19:22.693Z,49.00
2018-09-18T03:20:25.809Z,48.90
2018-09-18T03:21:28.881Z,48.90
2018-09-18T03:22:31.961Z,48.80
2018-09-18T03:23:35.042Z,48.90
2018-09-18T03:24:38.176Z,48.90
2018-09-18T03:25:41.302Z,48.90
2018-09-18T03:26:44.377Z,48.90
2018-09-18T03:27:47.578Z,48.90
2018-09-18T03:28:50.667Z,48.90
2018-09-18T03:29:53.784Z,48.90
2018-09-18T03:30:56.867Z,48.90
2018-09-18T03:32:00.005Z,48.90
2018-09-18T03:33:03.440Z,48.90
2018-09-18T03:34:06.599Z,48.90
2018-09-18T03:35:09.704Z,48.90
2018-09-18T03:36:13.097Z,48.90
2018-09-18T03:37:16.440Z,48.90
2018-09-18T03:38:19.582Z,48.90
2018-09-18T03:39:22.831Z,48.90
2018-09-18T03:40:26.180Z,48.90
2018-09-18T03:41:30.232Z,48.90
2018-09-18T03:42:33.308Z,48.90
2018-09-18T03:43:36.388Z,48.90
2018-09-18T03:44:39.485Z,48.90
2018-09-18T03:45:42.468Z,48.90
2018-09-18T03:46:45.689Z,48.90
2018-09-18T03:47:48.852Z,48.90
2018-09-18T03:48:51.960Z,48.90
2018-09-18T03:49:55.032Z,48.90
2018-09-18T03:50:58.137Z,48.90
2018-09-18T03:52:01.626Z,48.90
2018-09-18T03:53:04.804Z,48.90
2018-09-18T03:54:07.914Z,48.90
2018-09-18T03:55:12.856Z,48.90
2018-09-18T03:56:15.879Z,48.90
2018-09-18T03:57:20.354Z,49.00
2018-09-18T03:58:23.483Z,49.00
2018-09-18T03:59:26.519Z,48.90
2018-09-18T04:00:29.821Z,48.90
2018-09-18T04:01:33.048Z,48.90
2018-09-18T04:02:36.120Z,49.00
2018-09-18T04:03:39.269Z,48.90
2018-09-18T04:04:42.414Z,48.90
2018-09-18T04:05:45.667Z,48.90
2018-09-18T04:06:49.026Z,48.90
2018-09-18T04:07:52.274Z,48.90
2018-09-18T04:08:55.506Z,49.00
2018-09-18T04:09:58.745Z,48.90
2018-09-18T04:11:02.236Z,49.00
2018-09-18T04:12:05.529Z,48.90
2018-09-18T04:13:08.732Z,49.00
2018-09-18T04:14:11.964Z,48.90
2018-09-18T04:15:15.177Z,49.00
2018-09-18T04:16:18.292Z,48.90
2018-09-18T04:17:22.163Z,48.90
2018-09-18T04:18:26.678Z,49.00
2018-09-18T04:19:29.915Z,49.50
2018-09-18T04:20:33.174Z,48.90
2018-09-18T04:21:40.522Z,48.90
2018-09-18T04:22:43.585Z,48.90
2018-09-18T04:23:46.788Z,48.80
2018-09-18T04:24:49.844Z,48.80
2018-09-18T04:25:52.872Z,48.70
2018-09-18T04:26:55.944Z,48.70
2018-09-18T04:27:59.083Z,48.70
2018-09-18T04:29:02.245Z,48.70
2018-09-18T04:30:05.356Z,48.70
2018-09-18T04:31:08.647Z,48.70
2018-09-18T04:32:11.718Z,48.60
2018-09-18T04:33:14.747Z,48.50
2018-09-18T04:34:17.937Z,48.50
2018-09-18T04:35:21.050Z,49.20
2018-09-18T04:36:24.133Z,48.60
2018-09-18T04:37:27.497Z,48.60
2018-09-18T04:38:30.863Z,48.70
2018-09-18T04:39:33.913Z,48.70
2018-09-18T04:40:36.941Z,48.70
2018-09-18T04:41:40.033Z,48.50
2018-09-18T04:42:43.047Z,48.50
2018-09-18T04:43:46.089Z,48.40
2018-09-18T04:44:49.101Z,48.50
2018-09-18T04:45:52.205Z,49.10
2018-09-18T04:46:55.235Z,48.50
2018-09-18T04:47:58.296Z,48.50
2018-09-18T04:49:01.815Z,48.50
2018-09-18T04:50:05.563Z,48.50
2018-09-18T04:51:08.855Z,48.50
2018-09-18T04:52:11.861Z,48.50
2018-09-18T04:53:14.940Z,48.60
2018-09-18T04:54:18.037Z,48.60
2018-09-18T04:55:21.069Z,48.30
2018-09-18T04:56:24.143Z,48.40
2018-09-18T04:57:27.209Z,48.50
2018-09-18T04:58:30.503Z,48.50
2018-09-18T04:59:33.655Z,48.50
2018-09-18T05:00:36.720Z,48.60
2018-09-18T05:01:39.852Z,48.60
2018-09-18T05:02:42.908Z,48.60
2018-09-18T05:03:46.048Z,48.60
2018-09-18T05:04:49.118Z,48.50
2018-09-18T05:05:52.112Z,48.50
2018-09-18T05:06:55.217Z,48.40
2018-09-18T05:07:58.284Z,48.40
2018-09-18T05:09:01.346Z,48.30
2018-09-18T05:10:04.458Z,48.20
2018-09-18T05:11:07.479Z,48.20
2018-09-18T05:12:10.580Z,48.20
2018-09-18T05:13:13.623Z,48.20
2018-09-18T05:14:16.656Z,48.20
2018-09-18T05:15:19.775Z,48.20
2018-09-18T05:16:22.872Z,48.20
2018-09-18T05:17:25.920Z,48.30
2018-09-18T05:18:29.006Z,48.40
2018-09-18T05:19:31.980Z,48.50
2018-09-18T05:20:35.029Z,48.50
2018-09-18T05:21:38.037Z,48.50
2018-09-18T05:22:41.080Z,48.50
2018-09-18T05:23:44.148Z,48.40
2018-09-18T05:24:47.190Z,48.20
2018-09-18T05:25:50.409Z,48.20
2018-09-18T05:26:53.448Z,48.20
2018-09-18T05:27:56.487Z,48.20
2018-09-18T05:28:59.643Z,48.20
2018-09-18T05:30:02.692Z,48.30
2018-09-18T05:31:05.732Z,48.20
2018-09-18T05:32:08.872Z,48.10
2018-09-18T05:33:12.048Z,48.00
2018-09-18T05:34:15.132Z,48.00
2018-09-18T05:35:18.088Z,48.00
2018-09-18T05:36:21.214Z,48.00
2018-09-18T05:37:24.187Z,48.20
2018-09-18T05:38:27.247Z,48.30
2018-09-18T05:39:30.376Z,48.40
2018-09-18T05:40:34.121Z,48.40
2018-09-18T05:41:37.932Z,48.40
2018-09-18T05:42:41.449Z,48.40
2018-09-18T05:43:44.614Z,48.40
2018-09-18T05:44:47.848Z,48.50
2018-09-18T05:45:52.211Z,48.60
2018-09-18T05:46:55.831Z,48.60
2018-09-18T05:47:58.991Z,48.50
2018-09-18T05:49:02.132Z,48.50
2018-09-18T05:50:05.473Z,48.40
2018-09-18T05:51:08.531Z,48.40
2018-09-18T05:52:11.643Z,48.40
2018-09-18T05:53:14.692Z,48.40
2018-09-18T05:54:17.764Z,48.40
2018-09-18T05:55:20.831Z,48.50
2018-09-18T05:56:23.885Z,48.50
2018-09-18T05:57:26.941Z,48.50
2018-09-18T05:58:30.016Z,48.40
2018-09-18T05:59:33.205Z,48.40
2018-09-18T06:00:36.433Z,48.40
2018-09-18T06:01:39.505Z,48.40
2018-09-18T06:02:42.596Z,48.30
2018-09-18T06:03:45.625Z,48.30
2018-09-18T06:04:48.670Z,48.30
2018-09-18T06:05:51.681Z,48.40
2018-09-18T06:06:54.740Z,48.40
2018-09-18T06:07:58.402Z,48.40
2018-09-18T06:09:01.436Z,48.40
2018-09-18T06:10:04.893Z,48.40
2018-09-18T06:11:08.133Z,48.40
2018-09-18T06:12:11.165Z,48.40
2018-09-18T06:13:14.240Z,48.40
2018-09-18T06:14:17.355Z,48.40
2018-09-18T06:15:20.428Z,48.40
2018-09-18T06:16:23.504Z,48.40
2018-09-18T06:17:26.596Z,48.30
2018-09-18T06:18:29.620Z,48.30
2018-09-18T06:19:32.648Z,48.30
2018-09-18T06:20:35.710Z,48.30
2018-09-18T06:21:38.800Z,48.30
2018-09-18T06:22:41.811Z,48.40
2018-09-18T06:23:44.828Z,48.40
2018-09-18T06:24:48.696Z,48.50
2018-09-18T06:25:52.457Z,48.50
2018-09-18T06:26:55.718Z,48.50
2018-09-18T06:27:58.781Z,48.50
2018-09-18T06:29:01.886Z,48.50
2018-09-18T06:30:05.189Z,48.50
2018-09-18T06:31:08.243Z,48.50
2018-09-18T06:32:11.323Z,48.50
2018-09-18T06:33:14.708Z,48.50
2018-09-18T06:34:17.711Z,48.50
2018-09-18T06:35:21.877Z,48.50
2018-09-18T06:36:25.002Z,48.50
2018-09-18T06:37:28.200Z,48.50
2018-09-18T06:38:31.236Z,48.40
2018-09-18T06:39:34.248Z,48.50
2018-09-18T06:40:37.422Z,48.50
2018-09-18T06:41:40.672Z,48.50
2018-09-18T06:42:43.708Z,48.50
2018-09-18T06:43:46.704Z,48.60
2018-09-18T06:44:49.768Z,48.60
2018-09-18T06:45:52.804Z,48.60
2018-09-18T06:46:55.812Z,48.60
2018-09-18T06:47:58.869Z,48.60
2018-09-18T06:49:01.922Z,48.60
2018-09-18T06:50:05.000Z,48.50
2018-09-18T06:51:08.029Z,48.50
2018-09-18T06:52:11.099Z,48.50
2018-09-18T06:53:14.116Z,48.50
2018-09-18T06:54:17.165Z,48.50
2018-09-18T06:55:20.165Z,48.50
2018-09-18T06:56:23.314Z,48.50
2018-09-18T06:57:26.342Z,48.50
2018-09-18T06:58:29.382Z,48.50
2018-09-18T06:59:32.505Z,48.50
2018-09-18T07:00:35.579Z,48.40
2018-09-18T07:01:38.613Z,48.40
2018-09-18T07:02:41.619Z,48.40
2018-09-18T07:03:44.640Z,48.40
2018-09-18T07:04:47.676Z,48.40
2018-09-18T07:05:51.217Z,48.40
2018-09-18T07:06:54.332Z,48.50
2018-09-18T07:07:57.456Z,48.40
2018-09-18T07:09:00.621Z,48.50
2018-09-18T07:10:03.639Z,48.40
2018-09-18T07:11:06.764Z,48.40
2018-09-18T07:12:09.952Z,48.30
2018-09-18T07:13:13.096Z,48.30
2018-09-18T07:14:16.172Z,48.30
2018-09-18T07:15:19.387Z,48.30
2018-09-18T07:16:22.611Z,48.30
2018-09-18T07:17:25.768Z,48.20
2018-09-18T07:18:29.155Z,48.20
2018-09-18T07:19:32.393Z,48.20
2018-09-18T07:20:35.468Z,48.20
2018-09-18T07:21:38.537Z,48.10
2018-09-18T07:22:41.565Z,48.10
2018-09-18T07:23:44.616Z,48.00
2018-09-18T07:24:47.844Z,48.00
2018-09-18T07:25:50.983Z,48.00
2018-09-18T07:26:54.087Z,48.00
2018-09-18T07:27:57.184Z,48.00
2018-09-18T07:29:00.292Z,47.90
2018-09-18T07:30:03.600Z,48.00
2018-09-18T07:31:06.600Z,47.90
2018-09-18T07:32:09.681Z,47.90
2018-09-18T07:33:12.947Z,47.80
2018-09-18T07:34:16.067Z,47.80
2018-09-18T07:35:19.135Z,47.80
2018-09-18T07:36:22.291Z,47.90
2018-09-18T07:37:25.330Z,48.10
2018-09-18T07:38:28.464Z,48.20
2018-09-18T07:39:31.582Z,48.20
2018-09-18T07:40:34.603Z,48.20
2018-09-18T07:41:37.779Z,48.20
2018-09-18T07:42:40.964Z,48.30
2018-09-18T07:43:44.128Z,48.30
2018-09-18T07:44:47.396Z,48.20
2018-09-18T07:45:50.511Z,48.20
2018-09-18T07:46:54.452Z,48.30
2018-09-18T07:47:57.551Z,48.30
2018-09-18T07:49:04.626Z,48.30
2018-09-18T07:50:07.812Z,48.30
2018-09-18T07:51:10.941Z,48.30
2018-09-18T07:52:14.076Z,48.30
2018-09-18T07:53:17.067Z,48.20
2018-09-18T07:54:20.165Z,48.30
2018-09-18T07:55:23.378Z,48.30
2018-09-18T07:56:26.776Z,48.20
2018-09-18T07:57:29.911Z,48.20
2018-09-18T07:58:33.109Z,48.20
2018-09-18T07:59:36.135Z,48.10
2018-09-18T08:00:39.448Z,48.20
2018-09-18T08:01:42.604Z,48.10
2018-09-18T08:02:45.798Z,48.00
2018-09-18T08:03:49.300Z,48.00
2018-09-18T08:04:52.488Z,48.00
2018-09-18T08:05:55.515Z,48.00
2018-09-18T08:06:58.621Z,47.90
2018-09-18T08:08:01.726Z,47.90
2018-09-18T08:09:08.108Z,47.80
2018-09-18T08:10:11.237Z,47.70
2018-09-18T08:11:14.268Z,47.60
2018-09-18T08:12:17.323Z,47.70
2018-09-18T08:13:20.316Z,47.70
2018-09-18T08:14:23.396Z,47.60
2018-09-18T08:15:26.449Z,47.60
2018-09-18T08:16:29.569Z,47.50
2018-09-18T08:17:32.609Z,47.50
2018-09-18T08:18:35.644Z,47.50
2018-09-18T08:19:38.834Z,48.20
2018-09-18T08:20:41.767Z,47.60
2018-09-18T08:21:44.839Z,47.50
2018-09-18T08:22:48.892Z,47.50
2018-09-18T08:23:51.917Z,47.50
2018-09-18T08:24:54.995Z,47.50
2018-09-18T08:25:58.071Z,47.50
2018-09-18T08:27:01.269Z,47.50
2018-09-18T08:28:04.335Z,47.50
2018-09-18T08:29:07.432Z,47.50
2018-09-18T08:30:10.545Z,47.50
2018-09-18T08:31:13.621Z,47.50
2018-09-18T08:32:16.725Z,47.50
2018-09-18T08:33:19.802Z,47.40
2018-09-18T08:34:22.900Z,47.30
2018-09-18T08:35:25.993Z,47.20
2018-09-18T08:36:29.191Z,47.20
2018-09-18T08:37:32.232Z,47.00
2018-09-18T08:38:35.372Z,47.00
2018-09-18T08:39:38.499Z,46.80
2018-09-18T08:40:41.451Z,46.80
2018-09-18T08:41:44.514Z,46.60
2018-09-18T08:42:47.537Z,46.50
2018-09-18T08:43:50.584Z,46.50
2018-09-18T08:44:53.599Z,46.40
2018-09-18T08:45:56.701Z,46.30
2018-09-18T08:46:59.767Z,46.30
2018-09-18T08:48:02.870Z,46.30
2018-09-18T08:49:05.877Z,46.20
2018-09-18T08:50:08.938Z,46.20
2018-09-18T08:51:12.044Z,46.10
2018-09-18T08:52:15.098Z,46.00
2018-09-18T08:53:18.374Z,46.00
2018-09-18T08:54:21.608Z,46.00
2018-09-18T08:55:25.017Z,45.80
2018-09-18T08:56:28.105Z,45.80
2018-09-18T08:57:31.173Z,45.70
2018-09-18T08:58:34.248Z,45.70
2018-09-18T08:59:37.475Z,45.70
2018-09-18T09:00:40.545Z,45.70
2018-09-18T09:01:43.699Z,45.70
2018-09-18T09:02:46.809Z,45.60
2018-09-18T09:03:49.909Z,45.50
2018-09-18T09:04:52.835Z,45.50
2018-09-18T09:05:55.994Z,45.50
2018-09-18T09:06:58.954Z,45.50
2018-09-18T09:08:02.160Z,45.40
2018-09-18T09:09:08.981Z,45.40
2018-09-18T09:10:12.256Z,45.40
2018-09-18T09:11:15.250Z,45.40
2018-09-18T09:12:18.258Z,45.40
2018-09-18T09:13:21.297Z,45.40
2018-09-18T09:14:24.360Z,45.40
2018-09-18T09:15:27.313Z,45.50
2018-09-18T09:16:30.345Z,45.50
2018-09-18T09:17:33.417Z,45.60
2018-09-18T09:18:36.522Z,45.60
2018-09-18T09:19:39.539Z,45.60
2018-09-18T09:20:42.574Z,45.60
2018-09-18T09:21:45.891Z,45.70
2018-09-18T09:22:48.976Z,45.80
2018-09-18T09:23:51.896Z,45.80
2018-09-18T09:24:54.967Z,45.90
2018-09-18T09:25:57.992Z,45.90
2018-09-18T09:27:01.050Z,45.90
2018-09-18T09:28:04.183Z,46.00
2018-09-18T09:29:07.359Z,46.00
2018-09-18T09:30:10.625Z,46.20
2018-09-18T09:31:13.853Z,46.30
2018-09-18T09:32:17.134Z,46.30
2018-09-18T09:33:20.073Z,46.40
2018-09-18T09:34:23.183Z,46.40
2018-09-18T09:35:26.306Z,46.30
2018-09-18T09:36:29.384Z,46.40
2018-09-18T09:37:32.468Z,46.50
2018-09-18T09:38:35.480Z,46.40
2018-09-18T09:39:38.627Z,46.40
2018-09-18T09:40:41.779Z,46.50
2018-09-18T09:41:45.012Z,46.50
2018-09-18T09:42:48.141Z,46.60
2018-09-18T09:43:51.271Z,46.60
2018-09-18T09:44:54.448Z,46.60
2018-09-18T09:45:57.431Z,46.60
2018-09-18T09:47:00.477Z,46.70
2018-09-18T09:48:03.566Z,46.70
2018-09-18T09:49:06.578Z,46.80
2018-09-18T09:50:09.669Z,46.80
2018-09-18T09:51:12.813Z,46.90
2018-09-18T09:52:16.088Z,46.90
2018-09-18T09:53:19.155Z,47.00
2018-09-18T09:54:22.272Z,47.00
2018-09-18T09:55:25.458Z,47.00
2018-09-18T09:56:28.680Z,47.00
2018-09-18T09:57:31.713Z,47.00
2018-09-18T09:58:34.735Z,47.00
2018-09-18T09:59:37.868Z,47.00
2018-09-18T10:00:41.360Z,47.00
2018-09-18T10:01:50.502Z,47.00
2018-09-18T10:02:53.516Z,47.00
2018-09-18T10:03:56.871Z,47.10
2018-09-18T10:04:59.891Z,47.20
2018-09-18T10:06:02.972Z,47.30
2018-09-18T10:07:05.996Z,47.40
2018-09-18T10:08:09.064Z,47.50
2018-09-18T10:09:12.879Z,47.60
2018-09-18T10:10:15.889Z,47.50
2018-09-18T10:11:18.980Z,47.80
2018-09-18T10:12:21.974Z,48.00
2018-09-18T10:13:25.033Z,48.20
2018-09-18T10:14:28.044Z,48.40
2018-09-18T10:15:31.067Z,48.50
2018-09-18T10:16:34.243Z,48.60
2018-09-18T10:17:37.547Z,48.60
2018-09-18T10:18:40.670Z,48.80
2018-09-18T10:19:43.753Z,49.00
2018-09-18T10:20:46.795Z,49.20
2018-09-18T10:21:50.405Z,49.30
2018-09-18T10:22:53.398Z,49.30
2018-09-18T10:23:56.564Z,49.50
2018-09-18T10:24:59.637Z,49.60
2018-09-18T10:26:02.656Z,49.60
2018-09-18T10:27:06.049Z,49.70
2018-09-18T10:28:08.849Z,49.80
2018-09-18T10:29:11.893Z,50.00
2018-09-18T10:30:14.962Z,50.00
2018-09-18T10:31:18.005Z,49.90
2018-09-18T10:32:21.040Z,49.80
2018-09-18T10:33:24.048Z,49.70
2018-09-18T10:34:27.109Z,49.60
2018-09-18T10:35:30.232Z,49.40
2018-09-18T10:36:33.217Z,49.30
2018-09-18T10:37:36.217Z,49.20
2018-09-18T10:38:41.216Z,49.10
2018-09-18T10:39:45.220Z,49.00
2018-09-18T10:40:48.300Z,48.90
2018-09-18T10:41:51.466Z,48.90
2018-09-18T10:42:54.478Z,48.80
2018-09-18T10:43:57.499Z,48.70
2018-09-18T10:45:00.484Z,48.60
2018-09-18T10:46:03.621Z,48.60
2018-09-18T10:47:06.690Z,48.60
2018-09-18T10:48:09.713Z,48.50
2018-09-18T10:49:12.741Z,48.50
2018-09-18T10:50:15.792Z,48.50
2018-09-18T10:51:19.126Z,48.40
2018-09-18T10:52:22.143Z,48.40
2018-09-18T10:53:25.293Z,48.30
2018-09-18T10:54:28.383Z,48.30
2018-09-18T10:55:31.615Z,48.30
2018-09-18T10:56:34.704Z,48.30
2018-09-18T10:57:37.746Z,48.30
2018-09-18T10:58:40.771Z,48.30
2018-09-18T10:59:43.892Z,48.30
2018-09-18T11:00:46.972Z,48.30
2018-09-18T11:01:50.226Z,48.20
2018-09-18T11:02:53.211Z,48.30
2018-09-18T11:03:56.274Z,48.30
2018-09-18T11:04:59.274Z,48.20
2018-09-18T11:06:02.258Z,48.20
2018-09-18T11:07:05.430Z,48.10
2018-09-18T11:08:08.392Z,48.20
2018-09-18T11:09:12.171Z,48.20
2018-09-18T11:10:15.098Z,48.20
2018-09-18T11:11:18.100Z,48.10
2018-09-18T11:12:21.126Z,48.10
2018-09-18T11:13:24.248Z,48.20
2018-09-18T11:14:27.212Z,48.20
2018-09-18T11:15:30.348Z,48.20
2018-09-18T11:16:33.468Z,48.10
2018-09-18T11:17:36.353Z,48.10
2018-09-18T11:18:39.427Z,48.10
2018-09-18T11:19:42.437Z,48.10
2018-09-18T11:20:45.457Z,48.10
2018-09-18T11:21:48.523Z,48.20
2018-09-18T11:22:51.727Z,48.10
2018-09-18T11:23:55.015Z,48.10
2018-09-18T11:24:58.306Z,48.10
2018-09-18T11:26:01.579Z,48.20
2018-09-18T11:27:05.258Z,48.20
2018-09-18T11:28:08.405Z,48.10
2018-09-18T11:29:11.479Z,48.10
2018-09-18T11:30:14.509Z,48.10
2018-09-18T11:31:17.630Z,48.10
2018-09-18T11:32:20.574Z,48.10
2018-09-18T11:33:24.508Z,48.10
2018-09-18T11:34:28.980Z,48.10
2018-09-18T11:35:32.105Z,48.00
2018-09-18T11:36:35.125Z,48.10
2018-09-18T11:37:38.165Z,48.10
2018-09-18T11:38:41.224Z,48.10
2018-09-18T11:39:44.240Z,48.10
2018-09-18T11:40:47.227Z,48.10
2018-09-18T11:41:50.297Z,48.10
2018-09-18T11:42:53.376Z,48.10
2018-09-18T11:43:56.581Z,48.10
2018-09-18T11:45:00.277Z,48.10
2018-09-18T11:46:03.472Z,48.10
2018-09-18T11:47:06.454Z,48.10
2018-09-18T11:48:09.578Z,48.00
2018-09-18T11:49:12.968Z,48.00
2018-09-18T11:50:15.999Z,48.00
2018-09-18T11:51:19.493Z,48.00
2018-09-18T11:52:22.476Z,48.00
2018-09-18T11:53:25.615Z,48.00
2018-09-18T11:54:28.636Z,48.00
2018-09-18T11:55:31.684Z,48.00
2018-09-18T11:56:34.819Z,48.00
2018-09-18T11:57:40.192Z,48.00
2018-09-18T11:58:43.303Z,47.90
2018-09-18T11:59:46.363Z,47.90
2018-09-18T12:00:49.436Z,48.00
2018-09-18T12:01:52.712Z,48.00
2018-09-18T12:02:55.788Z,48.00
2018-09-18T12:03:58.828Z,48.00
2018-09-18T12:05:01.952Z,48.10
2018-09-18T12:06:04.853Z,48.10
2018-09-18T12:07:07.903Z,48.00
2018-09-18T12:08:10.951Z,48.00
2018-09-18T12:09:14.044Z,48.00
2018-09-18T12:10:17.168Z,48.00
2018-09-18T12:11:20.406Z,48.00
2018-09-18T12:12:23.409Z,48.00
2018-09-18T12:13:26.544Z,48.00
2018-09-18T12:14:29.560Z,48.00
2018-09-18T12:15:32.593Z,48.00
2018-09-18T12:16:35.789Z,48.00
2018-09-18T12:17:38.908Z,48.00
2018-09-18T12:18:41.938Z,48.00
2018-09-18T12:19:45.069Z,48.10
2018-09-18T12:20:48.132Z,48.00
2018-09-18T12:21:51.122Z,48.10
2018-09-18T12:22:54.208Z,48.10
2018-09-18T12:23:57.480Z,48.10
2018-09-18T12:25:00.603Z,48.10
2018-09-18T12:26:03.654Z,48.50
2018-09-18T12:27:06.703Z,48.60
2018-09-18T12:28:09.717Z,49.40
2018-09-18T12:29:12.671Z,48.80
2018-09-18T12:30:15.746Z,48.80
2018-09-18T12:31:18.997Z,48.80
2018-09-18T12:32:22.077Z,48.70
2018-09-18T12:33:25.093Z,48.70
2018-09-18T12:34:28.125Z,48.70
2018-09-18T12:35:31.291Z,48.80
2018-09-18T12:36:34.245Z,49.00
2018-09-18T12:37:37.207Z,49.00
2018-09-18T12:38:40.236Z,49.00
2018-09-18T12:39:43.344Z,49.00
2018-09-18T12:40:46.486Z,49.00
2018-09-18T12:41:49.561Z,48.80
2018-09-18T12:42:52.609Z,48.80
2018-09-18T12:43:55.721Z,48.70
2018-09-18T12:44:58.718Z,48.70
2018-09-18T12:46:01.777Z,48.70
2018-09-18T12:47:04.792Z,48.60
2018-09-18T12:48:07.932Z,48.60
2018-09-18T12:49:10.868Z,48.50
2018-09-18T12:50:14.165Z,48.40
2018-09-18T12:51:16.881Z,48.30
2018-09-18T12:52:19.987Z,48.10
2018-09-18T12:53:23.088Z,48.10
2018-09-18T12:54:26.080Z,48.10
2018-09-18T12:55:29.148Z,48.30
2018-09-18T12:56:32.194Z,48.40
2018-09-18T12:57:35.355Z,48.40
2018-09-18T12:58:38.312Z,48.50
2018-09-18T12:59:41.398Z,48.50
2018-09-18T13:00:44.360Z,48.40
2018-09-18T13:01:47.372Z,48.30
2018-09-18T13:02:50.371Z,48.40
2018-09-18T13:03:53.520Z,48.30
2018-09-18T13:04:56.663Z,48.30
2018-09-18T13:05:59.707Z,48.30
2018-09-18T13:07:02.771Z,48.30
2018-09-18T13:08:05.747Z,48.30
2018-09-18T13:09:10.223Z,48.30
2018-09-18T13:10:13.285Z,48.30
2018-09-18T13:11:18.061Z,48.20
2018-09-18T13:12:22.578Z,48.30
2018-09-18T13:13:25.584Z,48.30
2018-09-18T13:14:28.589Z,48.30
2018-09-18T13:15:31.665Z,48.20
2018-09-18T13:16:34.717Z,48.20
2018-09-18T13:17:37.787Z,48.20
2018-09-18T13:18:40.668Z,48.10
2018-09-18T13:19:43.657Z,48.10
2018-09-18T13:20:46.708Z,48.10
2018-09-18T13:21:49.695Z,48.10
2018-09-18T13:22:52.692Z,48.00
2018-09-18T13:23:56.045Z,48.00
2018-09-18T13:24:59.212Z,48.00
2018-09-18T13:26:02.393Z,48.00
2018-09-18T13:27:05.596Z,48.00
2018-09-18T13:28:08.660Z,48.00
2018-09-18T13:29:11.986Z,48.00
2018-09-18T13:30:15.010Z,48.10
2018-09-18T13:31:18.035Z,48.10
2018-09-18T13:32:21.017Z,48.10
2018-09-18T13:33:24.166Z,48.00